Time;durP1;ratioP1;P1;durP2;ratioP2;P2;SDS_P1;SDS_P2;PMS_P1;PMS_P2;Temp;Humidity;BMP_temperature;BMP_pressure;BME280_temperature;BME280_humidity;BME280_pressure;Samples;Min_cycle;Max_cycle;Signal;HPM_P1;HPM_P2
2022/12/08 00:00:51;;;;;;;8.50;5.40;;;7.20;77.40;;;;;;5033912;28;20030;-62
2022/12/08 00:03:17;;;;;;;9.23;5.28;;;7.20;77.40;;;;;;5032762;28;20033;-62
2022/12/08 00:11:18;;;;;;;8.18;4.70;;;7.20;77.40;;;;;;5033568;28;20044;-62
2022/12/08 00:13:45;;;;;;;7.85;4.55;;;7.20;77.40;;;;;;5044660;28;20095;-62
2022/12/08 00:16:11;;;;;;;8.60;4.80;;;7.20;77.50;;;;;;5031253;28;20028;-62
2022/12/08 00:18:37;;;;;;;9.88;5.45;;;7.20;77.50;;;;;;5032745;28;20314;-62
2022/12/08 00:21:03;;;;;;;9.40;4.82;;;7.20;77.50;;;;;;5032315;28;20041;-62
2022/12/08 00:23:29;;;;;;;9.48;5.55;;;7.20;77.50;;;;;;5032477;28;20041;-62
2022/12/08 00:25:55;;;;;;;10.15;5.32;;;7.20;77.50;;;;;;5031168;28;20433;-62
2022/12/08 00:28:20;;;;;;;9.73;5.43;;;7.20;77.50;;;;;;5033344;28;20030;-62
2022/12/08 00:30:46;;;;;;;8.45;5.05;;;7.30;77.60;;;;;;5032788;28;20038;-62
2022/12/08 00:33:12;;;;;;;10.93;5.93;;;7.20;77.50;;;;;;5048003;28;20037;-62
2022/12/08 00:35:37;;;;;;;9.00;5.45;;;7.30;77.60;;;;;;5034359;28;20022;-62
2022/12/08 00:38:03;;;;;;;9.38;5.60;;;7.30;77.60;;;;;;5033024;28;20041;-62
2022/12/08 00:40:29;;;;;;;9.43;5.53;;;7.30;77.60;;;;;;5032769;28;20346;-62
2022/12/08 00:42:54;;;;;;;8.85;5.57;;;7.30;77.60;;;;;;5033032;28;20481;-62
2022/12/08 00:45:20;;;;;;;8.70;5.68;;;7.30;77.60;;;;;;5031534;28;20029;-62
2022/12/08 00:47:46;;;;;;;8.73;5.00;;;7.30;77.60;;;;;;5033273;28;20112;-63
2022/12/08 00:50:12;;;;;;;9.27;5.07;;;7.30;77.60;;;;;;5031353;28;20037;-62
2022/12/08 00:52:37;;;;;;;8.65;4.93;;;7.30;77.60;;;;;;5031386;28;20068;-62
2022/12/08 00:55:04;;;;;;;9.47;4.40;;;7.30;77.60;;;;;;5033271;28;20029;-62
2022/12/08 00:57:29;;;;;;;8.05;4.55;;;7.30;77.60;;;;;;5031727;28;20131;-62
2022/12/08 00:59:56;;;;;;;7.65;4.65;;;7.30;77.70;;;;;;5032157;28;20169;-62
2022/12/08 01:02:22;;;;;;;7.45;4.45;;;7.30;77.60;;;;;;5031397;28;20032;-62
2022/12/08 01:04:47;;;;;;;9.20;4.22;;;7.30;77.60;;;;;;5032152;28;20057;-62
2022/12/08 01:07:13;;;;;;;11.27;4.70;;;7.30;77.60;;;;;;5031853;28;20056;-62
2022/12/08 01:09:39;;;;;;;10.32;5.03;;;7.30;77.50;;;;;;5033244;28;20116;-62
2022/12/08 01:12:05;;;;;;;8.50;4.63;;;7.40;77.60;;;;;;5031177;28;20026;-63
2022/12/08 01:14:31;;;;;;;7.43;3.83;;;7.30;77.50;;;;;;5033192;28;20028;-62
2022/12/08 01:16:57;;;;;;;7.80;4.45;;;7.40;77.60;;;;;;5032476;28;20124;-62
2022/12/08 01:19:22;;;;;;;8.02;3.92;;;7.40;77.50;;;;;;5033098;28;20438;-62
2022/12/08 01:21:48;;;;;;;7.72;3.90;;;7.40;77.60;;;;;;5031061;28;20046;-62
2022/12/08 01:24:18;;;;;;;7.88;4.15;;;7.40;77.60;;;;;;5030984;28;20079;-62
2022/12/08 01:26:44;;;;;;;7.57;3.90;;;7.40;77.70;;;;;;5034633;28;20086;-62
2022/12/08 01:29:11;;;;;;;7.70;3.88;;;7.40;77.70;;;;;;5031896;28;20170;-62
2022/12/08 01:31:37;;;;;;;8.80;4.22;;;7.40;77.70;;;;;;5033382;28;20025;-62
2022/12/08 01:34:03;;;;;;;7.72;4.10;;;7.40;77.70;;;;;;5035361;28;20362;-62
2022/12/08 01:36:35;;;;;;;9.38;4.13;;;7.40;77.70;;;;;;5018863;28;20021;-62
2022/12/08 01:39:04;;;;;;;8.40;4.53;;;7.40;77.70;;;;;;5035954;28;20040;-62
2022/12/08 01:41:32;;;;;;;7.93;4.40;;;7.40;77.70;;;;;;5034672;28;20427;-62
2022/12/08 01:44:07;;;;;;;8.73;4.95;;;7.40;77.80;;;;;;5033108;28;20021;-62
2022/12/08 01:46:35;;;;;;;10.05;5.65;;;7.40;77.80;;;;;;5035161;28;20054;-62
2022/12/08 01:49:07;;;;;;;8.23;5.20;;;7.40;77.80;;;;;;5034225;28;20029;-63
2022/12/08 01:51:42;;;;;;;10.00;5.93;;;7.40;77.90;;;;;;5035117;28;20038;-62
2022/12/08 01:54:09;;;;;;;9.80;6.53;;;7.40;77.90;;;;;;5034488;28;20029;-62
2022/12/08 01:56:40;;;;;;;9.05;5.53;;;7.40;77.90;;;;;;5035086;28;20096;-62
2022/12/08 01:59:09;;;;;;;9.38;5.75;;;7.40;77.90;;;;;;5045711;28;20022;-62
2022/12/08 02:01:35;;;;;;;12.77;6.10;;;7.40;78.00;;;;;;5031820;28;20048;-62
2022/12/08 02:04:02;;;;;;;9.80;5.63;;;7.40;78.00;;;;;;5031292;28;20029;-62
2022/12/08 02:06:32;;;;;;;9.77;5.93;;;7.50;78.10;;;;;;5035917;28;20080;-62
2022/12/08 02:09:00;;;;;;;11.48;6.63;;;7.50;78.10;;;;;;5034884;28;20183;-62
2022/12/08 02:11:26;;;;;;;12.38;7.40;;;7.40;78.00;;;;;;5034165;28;20466;-62
2022/12/08 02:13:53;;;;;;;12.23;6.85;;;7.40;78.00;;;;;;5034018;28;20032;-62
2022/12/08 02:16:18;;;;;;;11.35;7.07;;;7.40;78.10;;;;;;5029116;28;20335;-62
2022/12/08 02:19:09;;;;;;;12.80;8.13;;;7.40;78.10;;;;;;5034264;28;20048;-62
2022/12/08 02:22:03;;;;;;;13.57;7.80;;;7.50;78.20;;;;;;5026636;28;20394;-62
2022/12/08 02:24:37;;;;;;;12.18;6.90;;;7.40;78.10;;;;;;5034680;28;20025;-62
2022/12/08 02:27:51;;;;;;;14.18;7.03;;;7.40;78.20;;;;;;5034779;28;20068;-62
2022/12/08 02:30:46;;;;;;;12.27;7.67;;;7.40;78.10;;;;;;5025437;28;20390;-62
2022/12/08 02:33:52;;;;;;;10.70;6.83;;;7.40;78.20;;;;;;5032480;28;20439;-62
2022/12/08 02:36:38;;;;;;;11.90;6.88;;;7.40;78.20;;;;;;5033862;28;20094;-62
2022/12/08 02:39:32;;;;;;;10.07;6.47;;;7.40;78.30;;;;;;5035293;28;20112;-62
2022/12/08 02:42:26;;;;;;;11.65;7.20;;;7.40;78.30;;;;;;5024636;28;20026;-62
2022/12/08 02:44:58;;;;;;;12.38;7.75;;;7.40;78.50;;;;;;5034616;28;20033;-62
2022/12/08 02:47:27;;;;;;;11.23;6.63;;;7.40;78.50;;;;;;5033415;28;20109;-62
2022/12/08 02:49:54;;;;;;;11.93;7.63;;;7.30;78.50;;;;;;5017096;28;20100;-63
2022/12/08 02:52:20;;;;;;;10.20;6.30;;;7.40;78.60;;;;;;5034541;28;20037;-62
2022/12/08 02:54:54;;;;;;;12.32;7.28;;;7.40;78.60;;;;;;5033771;28;20457;-62
2022/12/08 02:57:44;;;;;;;11.85;7.57;;;7.40;78.70;;;;;;5035347;28;20376;-62
2022/12/08 03:00:17;;;;;;;10.15;6.75;;;7.40;78.60;;;;;;5023861;28;20108;-62
2022/12/08 03:03:10;;;;;;;10.52;6.43;;;7.40;78.70;;;;;;5033691;28;20041;-62
2022/12/08 03:06:05;;;;;;;9.65;6.20;;;7.40;78.70;;;;;;5033775;28;20021;-62
2022/12/08 03:08:58;;;;;;;10.20;5.95;;;7.40;78.70;;;;;;5028247;28;20079;-62
2022/12/08 03:11:36;;;;;;;9.73;5.63;;;7.40;78.70;;;;;;5031307;28;20366;-63
2022/12/08 03:14:05;;;;;;;10.68;5.80;;;7.30;78.70;;;;;;5033621;28;20405;-62
2022/12/08 03:16:33;;;;;;;9.25;6.07;;;7.30;78.80;;;;;;5033567;28;20501;-62
2022/12/08 03:19:08;;;;;;;9.32;5.78;;;7.30;78.80;;;;;;5034343;28;20450;-62
2022/12/08 03:21:36;;;;;;;10.95;5.82;;;7.30;78.90;;;;;;5026462;28;20033;-62
2022/12/08 03:24:06;;;;;;;8.43;5.00;;;7.40;78.90;;;;;;5033681;28;20040;-62
2022/12/08 03:26:50;;;;;;;9.95;5.13;;;7.40;78.90;;;;;;5033684;28;20033;-62
2022/12/08 03:29:16;;;;;;;9.85;5.55;;;7.40;78.90;;;;;;5033531;28;20066;-62
2022/12/08 03:31:50;;;;;;;10.20;5.28;;;7.40;78.90;;;;;;5032672;28;20033;-62
2022/12/08 03:34:17;;;;;;;9.48;5.10;;;7.40;78.90;;;;;;5033884;28;20343;-62
2022/12/08 03:36:44;;;;;;;10.32;5.47;;;7.40;78.90;;;;;;5032967;28;20022;-62
2022/12/08 03:39:10;;;;;;;8.70;4.85;;;7.40;79.00;;;;;;5041518;28;20113;-63
2022/12/08 03:41:36;;;;;;;10.73;5.28;;;7.40;79.00;;;;;;5033446;28;20069;-63
2022/12/08 03:44:02;;;;;;;9.20;5.70;;;7.40;79.00;;;;;;5033967;28;20033;-62
2022/12/08 03:46:29;;;;;;;10.32;5.40;;;7.40;79.00;;;;;;5032491;28;20025;-62
2022/12/08 03:48:55;;;;;;;9.65;5.32;;;7.40;79.00;;;;;;5033535;28;20512;-62
2022/12/08 03:51:22;;;;;;;9.10;5.57;;;7.40;79.00;;;;;;5025882;28;20029;-62
2022/12/08 03:53:48;;;;;;;7.80;4.20;;;7.40;79.00;;;;;;5028781;28;20033;-62
2022/12/08 03:56:22;;;;;;;9.50;5.00;;;7.40;79.10;;;;;;5033194;28;20101;-62
2022/12/08 03:58:47;;;;;;;9.63;5.22;;;7.40;79.10;;;;;;5032964;28;20029;-62
2022/12/08 04:01:13;;;;;;;8.33;4.27;;;7.40;79.10;;;;;;5027504;28;20056;-62
2022/12/08 04:03:39;;;;;;;8.80;4.57;;;7.40;79.10;;;;;;5032173;28;20048;-62
2022/12/08 04:06:05;;;;;;;9.23;4.60;;;7.40;79.20;;;;;;5033031;28;20033;-63
2022/12/08 04:08:30;;;;;;;8.77;4.70;;;7.40;79.10;;;;;;5033779;28;20412;-62
2022/12/08 04:10:56;;;;;;;8.52;4.28;;;7.40;79.10;;;;;;5031998;28;20101;-62
2022/12/08 04:13:22;;;;;;;8.93;4.00;;;7.40;79.00;;;;;;5046004;28;20033;-62
2022/12/08 04:15:48;;;;;;;7.07;3.63;;;7.40;79.00;;;;;;5016199;28;20484;-62
2022/12/08 04:18:14;;;;;;;6.97;3.40;;;7.40;79.10;;;;;;5032827;28;20028;-62
2022/12/08 04:20:41;;;;;;;6.60;2.88;;;7.40;79.10;;;;;;5031689;28;20049;-62
2022/12/08 04:23:07;;;;;;;6.80;3.38;;;7.40;79.10;;;;;;5032639;28;20030;-62
2022/12/08 04:25:33;;;;;;;6.90;3.50;;;7.40;79.10;;;;;;5033709;28;20034;-62
2022/12/08 04:27:59;;;;;;;6.30;2.80;;;7.40;79.10;;;;;;5030937;28;20029;-62
2022/12/08 04:30:24;;;;;;;7.20;3.20;;;7.40;79.10;;;;;;5033073;28;20446;-62
2022/12/08 04:32:50;;;;;;;7.53;2.90;;;7.40;79.10;;;;;;5032425;28;20030;-62
2022/12/08 04:35:16;;;;;;;7.88;3.20;;;7.40;79.10;;;;;;5030781;28;20026;-62
2022/12/08 04:37:43;;;;;;;6.97;2.65;;;7.40;79.10;;;;;;5032821;28;20033;-63
2022/12/08 04:40:09;;;;;;;5.13;2.50;;;7.40;79.20;;;;;;5033354;28;20124;-62
2022/12/08 04:42:35;;;;;;;5.32;2.40;;;7.30;79.10;;;;;;5031624;28;20048;-62
2022/12/08 04:45:01;;;;;;;5.67;2.07;;;7.30;79.20;;;;;;5031315;28;20022;-62
2022/12/08 04:47:26;;;;;;;4.70;2.00;;;7.30;79.10;;;;;;5032080;28;20923;-62
2022/12/08 04:49:52;;;;;;;4.73;2.10;;;7.40;79.10;;;;;;5033486;28;20033;-62
2022/12/08 04:52:18;;;;;;;4.93;2.20;;;7.40;79.10;;;;;;5030551;28;20506;-62
2022/12/08 04:54:43;;;;;;;4.27;1.90;;;7.40;79.10;;;;;;5032477;28;20045;-62
2022/12/08 04:57:09;;;;;;;5.40;2.60;;;7.30;79.00;;;;;;5034295;28;20434;-62
2022/12/08 04:59:35;;;;;;;7.43;2.83;;;7.40;79.00;;;;;;5032892;28;20028;-62
2022/12/08 05:02:01;;;;;;;5.40;2.60;;;7.40;79.00;;;;;;5034321;28;20417;-62
2022/12/08 05:04:26;;;;;;;6.38;2.80;;;7.40;79.10;;;;;;5035538;28;20117;-62
2022/12/08 05:06:52;;;;;;;5.95;2.70;;;7.40;79.10;;;;;;5036181;28;20087;-62
2022/12/08 05:09:18;;;;;;;5.93;3.00;;;7.30;79.10;;;;;;5036168;28;20120;-62
2022/12/08 05:11:43;;;;;;;5.77;2.97;;;7.30;79.20;;;;;;5036112;28;20037;-62
2022/12/08 05:14:15;;;;;;;6.47;3.53;;;7.40;79.40;;;;;;5034518;28;20406;-62
2022/12/08 05:16:42;;;;;;;6.28;3.08;;;7.30;79.20;;;;;;5035979;28;20029;-62
2022/12/08 05:19:08;;;;;;;6.60;3.55;;;7.30;79.20;;;;;;5035956;28;20529;-62
2022/12/08 05:21:33;;;;;;;5.50;2.90;;;7.30;79.30;;;;;;5034930;28;20041;-62
2022/12/08 05:23:59;;;;;;;6.05;3.10;;;7.30;79.30;;;;;;5036077;28;20037;-62
2022/12/08 05:26:25;;;;;;;6.63;3.55;;;7.30;79.40;;;;;;5036450;28;20025;-62
2022/12/08 05:28:51;;;;;;;7.95;3.65;;;7.30;79.40;;;;;;5035360;28;20052;-63
2022/12/08 05:31:17;;;;;;;7.43;4.13;;;7.30;79.40;;;;;;5034811;28;20033;-62
2022/12/08 05:33:45;;;;;;;7.22;3.60;;;7.30;79.50;;;;;;5035430;28;20054;-62
2022/12/08 05:36:13;;;;;;;9.03;3.60;;;7.30;79.50;;;;;;5036697;28;20113;-62
2022/12/08 05:38:39;;;;;;;6.23;3.33;;;7.30;79.50;;;;;;5035595;28;20021;-62
2022/12/08 05:41:06;;;;;;;7.40;3.92;;;7.30;79.50;;;;;;5034660;28;20032;-62
2022/12/08 05:43:31;;;;;;;6.80;3.50;;;7.30;79.40;;;;;;5033373;28;20076;-62
2022/12/08 05:45:57;;;;;;;7.50;3.83;;;7.30;79.40;;;;;;5033323;28;20037;-62
2022/12/08 05:48:23;;;;;;;6.45;3.72;;;7.30;79.40;;;;;;5032626;28;20021;-62
2022/12/08 05:50:49;;;;;;;7.40;3.63;;;7.30;79.40;;;;;;5032823;28;20095;-62
2022/12/08 05:53:16;;;;;;;5.80;3.10;;;7.30;79.60;;;;;;5034843;28;20045;-62
2022/12/08 05:55:42;;;;;;;7.30;3.23;;;7.30;79.50;;;;;;5017797;28;20447;-63
2022/12/08 05:58:18;;;;;;;4.90;2.40;;;7.20;79.50;;;;;;5035195;28;20055;-63
2022/12/08 06:00:45;;;;;;;5.97;2.58;;;7.20;79.40;;;;;;5031444;28;20033;-62
2022/12/08 06:03:12;;;;;;;5.85;2.90;;;7.20;79.50;;;;;;5049003;28;20421;-62
2022/12/08 06:05:39;;;;;;;5.80;2.90;;;7.20;79.50;;;;;;5034807;28;20659;-62
2022/12/08 06:08:04;;;;;;;4.17;2.13;;;7.30;79.50;;;;;;5035511;28;20346;-63
2022/12/08 06:10:30;;;;;;;4.00;1.50;;;7.20;79.50;;;;;;5034320;28;20104;-62
2022/12/08 06:12:56;;;;;;;2.90;1.30;;;7.20;79.40;;;;;;5032104;28;20124;-62
2022/12/08 06:15:21;;;;;;;2.73;1.40;;;7.20;79.30;;;;;;5032641;28;20439;-63
2022/12/08 06:17:47;;;;;;;1.80;0.90;;;7.10;79.20;;;;;;5034843;28;20395;-62
2022/12/08 06:20:13;;;;;;;2.77;1.20;;;7.10;79.20;;;;;;5030185;28;20091;-62
2022/12/08 06:22:38;;;;;;;4.13;1.43;;;7.10;79.20;;;;;;5034640;28;20036;-63
2022/12/08 06:25:04;;;;;;;3.17;1.50;;;7.10;79.20;;;;;;5034565;28;20030;-62
2022/12/08 06:27:31;;;;;;;2.05;1.20;;;7.10;79.10;;;;;;5033784;28;20029;-62
2022/12/08 06:29:57;;;;;;;2.27;1.10;;;7.10;79.10;;;;;;5034676;28;20039;-63
2022/12/08 06:32:23;;;;;;;2.63;1.30;;;7.10;79.00;;;;;;5031645;28;20116;-63
2022/12/08 06:34:49;;;;;;;1.60;0.90;;;7.10;79.00;;;;;;5035425;28;20342;-63
2022/12/08 06:37:14;;;;;;;1.87;0.90;;;7.10;79.00;;;;;;5034031;28;20029;-63
2022/12/08 06:39:40;;;;;;;1.23;0.98;;;7.10;78.90;;;;;;5035601;28;20018;-63
2022/12/08 06:44:50;;;;;;;1.93;1.00;;;7.00;78.90;;;;;;5035689;28;20026;-63
2022/12/08 06:47:16;;;;;;;1.95;1.08;;;7.00;78.90;;;;;;5033614;28;20055;-63
2022/12/08 06:49:41;;;;;;;5.63;1.43;;;7.00;78.90;;;;;;5018332;28;20120;-63
2022/12/08 06:52:07;;;;;;;2.73;1.10;;;7.00;78.90;;;;;;5033499;28;20029;-63
2022/12/08 06:54:33;;;;;;;1.97;1.00;;;7.00;78.80;;;;;;5035343;28;20059;-64
2022/12/08 06:56:58;;;;;;;3.40;1.30;;;7.00;78.80;;;;;;5033292;28;20113;-63
2022/12/08 06:59:25;;;;;;;3.10;1.60;;;7.00;78.80;;;;;;5033925;28;20442;-63
2022/12/08 07:01:51;;;;;;;2.50;1.40;;;7.00;78.90;;;;;;5033632;28;20032;-63
2022/12/08 07:04:16;;;;;;;4.03;1.30;;;7.00;78.90;;;;;;5017561;28;20029;-63
2022/12/08 07:06:42;;;;;;;2.22;1.13;;;7.00;78.90;;;;;;5016743;28;20029;-63
2022/12/08 07:09:08;;;;;;;1.60;1.00;;;7.00;78.90;;;;;;5034040;28;20026;-62
2022/12/08 07:11:34;;;;;;;2.00;1.07;;;7.00;79.00;;;;;;5032666;28;20025;-62
2022/12/08 07:13:59;;;;;;;2.60;1.17;;;7.00;79.00;;;;;;5033029;28;20044;-63
2022/12/08 07:16:25;;;;;;;1.73;0.93;;;7.00;79.00;;;;;;5033824;28;20419;-63
2022/12/08 07:18:50;;;;;;;3.43;1.10;;;7.00;79.10;;;;;;5032609;28;20030;-63
2022/12/08 07:21:16;;;;;;;4.60;1.10;;;7.00;79.10;;;;;;5032105;28;20419;-63
2022/12/08 07:23:46;;;;;;;4.30;1.60;;;7.00;79.10;;;;;;5026068;28;20040;-64
2022/12/08 07:26:12;;;;;;;5.53;1.40;;;7.00;79.00;;;;;;5029234;28;20038;-65
2022/12/08 07:28:39;;;;;;;2.77;1.40;;;7.00;79.00;;;;;;5032590;28;20338;-63
2022/12/08 07:31:07;;;;;;;2.63;1.20;;;7.10;79.00;;;;;;5031830;28;20442;-64
2022/12/08 07:33:34;;;;;;;3.42;1.50;;;7.00;78.90;;;;;;5045259;28;20034;-64
2022/12/08 07:36:03;;;;;;;4.03;1.80;;;7.00;78.90;;;;;;5031377;28;20024;-63
2022/12/08 07:38:30;;;;;;;3.37;1.50;;;7.00;78.90;;;;;;5033050;28;20347;-64
2022/12/08 07:40:55;;;;;;;3.23;1.43;;;7.00;78.90;;;;;;5031853;28;20092;-64
2022/12/08 07:43:22;;;;;;;3.08;1.33;;;7.00;79.00;;;;;;5025096;28;20041;-64
2022/12/08 07:45:49;;;;;;;3.67;1.70;;;7.00;78.90;;;;;;5032365;28;20484;-64
2022/12/08 07:48:15;;;;;;;3.70;1.63;;;7.00;78.90;;;;;;5033001;28;20459;-64
2022/12/08 07:50:41;;;;;;;2.97;1.50;;;7.00;78.90;;;;;;5032384;28;20044;-64
2022/12/08 07:53:07;;;;;;;4.60;1.60;;;7.00;78.90;;;;;;5027147;28;20034;-64
2022/12/08 07:55:33;;;;;;;4.53;1.60;;;7.00;78.90;;;;;;5029546;28;20419;-64
2022/12/08 07:57:59;;;;;;;3.07;1.67;;;7.00;79.00;;;;;;5031950;28;20061;-64
2022/12/08 08:00:24;;;;;;;4.35;1.70;;;7.00;79.00;;;;;;5031399;28;20025;-64
2022/12/08 08:02:50;;;;;;;3.73;1.50;;;7.00;79.00;;;;;;5032704;28;20030;-63
2022/12/08 08:05:16;;;;;;;3.53;1.60;;;7.00;79.00;;;;;;5029010;28;20037;-63
2022/12/08 08:07:45;;;;;;;3.53;1.50;;;7.00;78.90;;;;;;5013267;28;20033;-63
2022/12/08 08:10:11;;;;;;;4.05;1.67;;;7.00;78.90;;;;;;5031933;28;20572;-63
2022/12/08 08:12:38;;;;;;;5.00;1.70;;;7.00;78.90;;;;;;5031458;28;20450;-64
2022/12/08 08:15:07;;;;;;;3.77;1.60;;;7.00;78.90;;;;;;5031918;28;20040;-63
2022/12/08 08:17:34;;;;;;;4.72;1.90;;;7.00;78.90;;;;;;5032271;28;20041;-63
2022/12/08 08:20:00;;;;;;;3.87;1.50;;;7.00;78.90;;;;;;5030092;28;20038;-64
2022/12/08 08:22:26;;;;;;;3.60;1.40;;;7.00;78.90;;;;;;5028759;28;20361;-64
2022/12/08 08:24:52;;;;;;;3.60;1.53;;;7.00;78.80;;;;;;5032740;28;20022;-63
2022/12/08 08:27:19;;;;;;;4.80;2.07;;;7.00;78.80;;;;;;5032061;28;20030;-64
2022/12/08 08:29:44;;;;;;;4.90;1.90;;;7.00;78.80;;;;;;5030127;28;20064;-64
2022/12/08 08:32:10;;;;;;;4.33;1.80;;;7.00;78.90;;;;;;5032097;28;20041;-64
2022/12/08 08:34:36;;;;;;;6.30;1.83;;;7.00;78.90;;;;;;5035133;28;20150;-65
2022/12/08 08:37:02;;;;;;;5.60;2.20;;;7.00;78.90;;;;;;5036500;28;20059;-64
2022/12/08 08:39:29;;;;;;;4.57;1.63;;;7.00;78.90;;;;;;5031270;28;20129;-63
2022/12/08 08:41:54;;;;;;;4.50;1.90;;;7.00;78.90;;;;;;5033809;28;20083;-63
2022/12/08 08:44:20;;;;;;;4.60;1.80;;;7.00;78.80;;;;;;5033675;28;20418;-64
2022/12/08 08:46:46;;;;;;;4.80;1.90;;;7.00;78.80;;;;;;5035295;28;20025;-64
2022/12/08 08:49:11;;;;;;;3.88;1.55;;;7.00;78.80;;;;;;5035497;28;20041;-64
2022/12/08 08:51:37;;;;;;;6.00;1.90;;;7.10;78.80;;;;;;5034090;28;20036;-63
2022/12/08 08:54:03;;;;;;;4.03;1.73;;;7.00;78.70;;;;;;5033870;28;20029;-64
2022/12/08 08:56:29;;;;;;;3.23;1.50;;;7.00;78.70;;;;;;5037193;28;20036;-64
2022/12/08 08:58:55;;;;;;;3.72;1.58;;;7.00;78.70;;;;;;5035885;28;20116;-64
2022/12/08 09:01:25;;;;;;;4.20;1.50;;;7.10;78.70;;;;;;5031096;28;20107;-64
2022/12/08 09:03:51;;;;;;;3.30;1.43;;;7.10;78.60;;;;;;5033928;28;20045;-64
2022/12/08 09:06:17;;;;;;;5.83;1.97;;;7.10;78.50;;;;;;5033983;28;20022;-64
2022/12/08 09:08:43;;;;;;;3.27;1.30;;;7.10;78.60;;;;;;5035443;28;20124;-63
2022/12/08 09:11:09;;;;;;;4.43;1.57;;;7.10;78.50;;;;;;5015974;28;20026;-65
2022/12/08 09:13:35;;;;;;;2.97;1.50;;;7.10;78.50;;;;;;5027975;28;20040;-64
2022/12/08 09:16:02;;;;;;;3.70;1.60;;;7.10;78.50;;;;;;5035597;28;20112;-63
2022/12/08 09:18:28;;;;;;;2.50;1.10;;;7.10;78.50;;;;;;5034339;28;20021;-64
2022/12/08 09:20:54;;;;;;;3.40;1.30;;;7.00;78.40;;;;;;5038867;28;20322;-64
2022/12/08 09:23:19;;;;;;;3.17;1.27;;;7.10;78.50;;;;;;5036962;28;20026;-65
2022/12/08 09:25:45;;;;;;;4.70;1.73;;;7.10;78.40;;;;;;5033236;28;20041;-64
2022/12/08 09:28:12;;;;;;;3.33;1.40;;;7.10;78.40;;;;;;5041235;28;20026;-64
2022/12/08 09:30:38;;;;;;;4.80;1.63;;;7.10;78.30;;;;;;5036828;28;20030;-64
2022/12/08 09:33:04;;;;;;;4.13;1.67;;;7.10;78.30;;;;;;5036062;28;20038;-63
2022/12/08 09:35:30;;;;;;;4.40;1.50;;;7.20;78.40;;;;;;5034742;28;20026;-66
2022/12/08 09:37:56;;;;;;;2.97;1.50;;;7.10;78.30;;;;;;5039784;28;20053;-65
2022/12/08 09:40:24;;;;;;;4.97;1.80;;;7.20;78.30;;;;;;5035905;28;20072;-65
2022/12/08 09:42:56;;;;;;;6.30;1.90;;;7.20;78.20;;;;;;5026886;28;20060;-65
2022/12/08 09:45:26;;;;;;;4.20;1.40;;;7.20;78.20;;;;;;5044460;28;20026;-66
2022/12/08 09:48:03;;;;;;;4.00;1.77;;;7.20;78.20;;;;;;5036384;28;20169;-64
2022/12/08 09:50:45;;;;;;;3.50;1.60;;;7.20;78.20;;;;;;5052383;28;20338;-66
2022/12/08 09:53:17;;;;;;;3.63;1.60;;;7.20;78.60;;;;;;5036526;28;20032;-65
2022/12/08 09:55:52;;;;;;;4.03;1.77;;;7.20;78.20;;;;;;5035133;28;20053;-65
2022/12/08 09:58:41;;;;;;;4.00;1.83;;;7.20;78.40;;;;;;5033047;28;20083;-65
2022/12/08 10:01:09;;;;;;;3.70;1.80;;;7.20;78.30;;;;;;5027224;28;20034;-64
2022/12/08 10:03:35;;;;;;;4.47;1.90;;;7.20;78.40;;;;;;5050541;28;20308;-65
2022/12/08 10:06:06;;;;;;;4.77;1.93;;;7.10;78.30;;;;;;5029810;28;20033;-64
2022/12/08 10:09:02;;;;;;;5.25;1.98;;;7.20;78.30;;;;;;5035948;28;20455;-64
2022/12/08 10:11:59;;;;;;;5.73;2.37;;;7.20;78.20;;;;;;5034658;28;20030;-65
2022/12/08 10:14:48;;;;;;;5.20;2.07;;;7.10;78.10;;;;;;5034809;28;20039;-64
2022/12/08 10:17:25;;;;;;;5.60;2.20;;;7.10;78.20;;;;;;5030504;28;20113;-64
2022/12/08 10:19:58;;;;;;;4.23;1.83;;;7.10;78.20;;;;;;5035363;28;20032;-64
2022/12/08 10:22:30;;;;;;;5.60;2.00;;;7.10;78.20;;;;;;5030757;28;20082;-64
2022/12/08 10:25:17;;;;;;;4.18;1.75;;;7.20;78.40;;;;;;5033523;28;20060;-64
2022/12/08 10:27:42;;;;;;;4.80;1.57;;;7.20;78.30;;;;;;5020937;28;20034;-64
2022/12/08 10:30:13;;;;;;;4.63;1.87;;;7.20;78.40;;;;;;5018144;28;20025;-64
2022/12/08 10:32:42;;;;;;;3.93;1.77;;;7.20;78.40;;;;;;5034535;28;20099;-64
2022/12/08 10:35:12;;;;;;;3.58;1.63;;;7.20;78.30;;;;;;5034705;28;20022;-64
2022/12/08 10:37:38;;;;;;;4.43;1.77;;;7.20;78.20;;;;;;5035507;28;20030;-64
2022/12/08 10:40:07;;;;;;;3.90;1.80;;;7.20;78.20;;;;;;5034729;28;20106;-64
2022/12/08 10:42:46;;;;;;;3.07;1.57;;;7.20;78.30;;;;;;5051303;28;20346;-64
2022/12/08 10:45:25;;;;;;;4.53;1.73;;;7.20;78.20;;;;;;5036041;28;20083;-64
2022/12/08 10:47:58;;;;;;;3.67;1.50;;;7.20;78.20;;;;;;5049876;28;20033;-64
2022/12/08 10:50:32;;;;;;;2.28;1.25;;;7.20;78.20;;;;;;5016919;28;20026;-65
2022/12/08 10:53:11;;;;;;;2.57;1.40;;;7.20;78.20;;;;;;5035571;28;20426;-65
2022/12/08 10:55:46;;;;;;;5.53;1.70;;;7.20;78.20;;;;;;5034443;28;20108;-65
2022/12/08 10:58:25;;;;;;;2.83;1.30;;;7.20;78.20;;;;;;5033250;28;20506;-65
2022/12/08 11:00:54;;;;;;;2.90;1.47;;;7.20;78.20;;;;;;5034310;28;20025;-65
2022/12/08 11:03:33;;;;;;;2.80;1.20;;;7.20;78.20;;;;;;5034136;28;20103;-65
2022/12/08 11:06:00;;;;;;;2.43;1.10;;;7.20;78.20;;;;;;5033114;28;20057;-65
2022/12/08 11:08:27;;;;;;;3.83;1.13;;;7.20;78.20;;;;;;5031692;28;20410;-64
2022/12/08 11:10:53;;;;;;;2.33;1.10;;;7.20;78.20;;;;;;5050702;28;20040;-65
2022/12/08 11:13:23;;;;;;;3.03;1.27;;;7.20;78.20;;;;;;5045303;28;20025;-65
2022/12/08 11:15:49;;;;;;;2.93;1.13;;;7.30;78.20;;;;;;5032315;28;20032;-63
2022/12/08 11:18:29;;;;;;;3.37;1.60;;;7.30;78.30;;;;;;5136368;27;20512;-64
2022/12/08 11:21:10;;;;;;;3.73;1.30;;;7.30;78.20;;;;;;5118622;28;20031;-64
2022/12/08 11:23:36;;;;;;;4.20;1.90;;;7.30;78.10;;;;;;5113463;28;20027;-64
2022/12/08 11:26:10;;;;;;;3.13;1.50;;;7.30;78.10;;;;;;5132246;28;20027;-64
2022/12/08 11:28:36;;;;;;;2.67;1.40;;;7.30;78.20;;;;;;5124774;27;20087;-65
2022/12/08 11:31:13;;;;;;;3.42;1.33;;;7.30;78.10;;;;;;5119635;28;20127;-66
2022/12/08 11:33:40;;;;;;;3.87;1.60;;;7.30;78.10;;;;;;5111021;28;20363;-65
2022/12/08 11:36:11;;;;;;;3.35;1.52;;;7.30;78.00;;;;;;5130538;27;20023;-66
2022/12/08 11:38:42;;;;;;;3.70;1.67;;;7.30;78.00;;;;;;5129187;27;20027;-66
2022/12/08 11:41:12;;;;;;;3.67;2.05;;;7.30;78.00;;;;;;5133924;27;20285;-65
2022/12/08 11:43:50;;;;;;;5.47;2.03;;;7.30;78.00;;;;;;5127003;27;21335;-65
2022/12/08 11:46:23;;;;;;;4.18;1.98;;;7.40;78.00;;;;;;5128723;27;20034;-64
2022/12/08 11:48:52;;;;;;;4.90;2.10;;;7.40;78.00;;;;;;5134914;27;20028;-64
2022/12/08 11:51:27;;;;;;;5.00;2.23;;;7.40;77.90;;;;;;5132881;27;20425;-65
2022/12/08 11:54:23;;;;;;;4.30;2.10;;;7.40;77.80;;;;;;5096501;27;20126;-64
2022/12/08 11:56:54;;;;;;;4.87;2.03;;;7.40;77.90;;;;;;5128244;27;20102;-64
2022/12/08 11:59:44;;;;;;;5.22;2.10;;;7.40;78.00;;;;;;5134839;27;20035;-64
2022/12/08 12:02:22;;;;;;;4.23;2.00;;;7.40;77.90;;;;;;5113194;28;20027;-66
2022/12/08 12:05:22;;;;;;;5.13;2.40;;;7.40;77.90;;;;;;5125936;27;20096;-65
2022/12/08 12:07:57;;;;;;;5.33;2.40;;;7.40;77.90;;;;;;5110910;27;20036;-65
2022/12/08 12:10:23;;;;;;;5.30;1.97;;;7.40;77.90;;;;;;5100647;28;20115;-66
2022/12/08 12:13:26;;;;;;;5.47;2.35;;;7.30;77.80;;;;;;5099251;28;20118;-65
2022/12/08 12:16:42;;;;;;;4.97;2.10;;;7.30;77.80;;;;;;5116865;27;20339;-65
2022/12/08 12:19:17;;;;;;;5.43;2.13;;;7.30;77.80;;;;;;5014629;28;20191;-64
2022/12/08 12:21:53;;;;;;;4.63;1.97;;;7.30;77.80;;;;;;5019135;28;20056;-64
2022/12/08 12:24:24;;;;;;;3.07;1.60;;;7.30;77.70;;;;;;4998564;28;20030;-64
2022/12/08 12:27:03;;;;;;;5.20;1.80;;;7.30;77.60;;;;;;5005675;28;20128;-64
2022/12/08 12:29:34;;;;;;;7.20;1.83;;;7.40;77.60;;;;;;4998198;28;20038;-64
2022/12/08 12:32:07;;;;;;;4.57;1.95;;;7.30;77.50;;;;;;5003705;28;20423;-64
2022/12/08 12:34:59;;;;;;;3.33;1.60;;;7.30;77.50;;;;;;5018432;28;20038;-65
2022/12/08 12:37:39;;;;;;;3.97;1.67;;;7.30;77.40;;;;;;4997607;28;20435;-64
2022/12/08 12:40:10;;;;;;;3.60;1.30;;;7.30;77.30;;;;;;4989112;28;20053;-64
2022/12/08 12:42:36;;;;;;;;;;;7.30;77.20;;;;;;5012353;28;20038;-65
2022/12/08 12:45:17;;;;;;;3.40;1.60;;;7.30;77.30;;;;;;5025511;28;20362;-65
2022/12/08 12:47:44;;;;;;;3.33;1.33;;;7.30;77.30;;;;;;5010890;28;20039;-65
2022/12/08 12:50:12;;;;;;;4.33;1.53;;;7.40;77.40;;;;;;4999623;28;20041;-65
2022/12/08 12:52:39;;;;;;;4.20;1.70;;;7.30;77.30;;;;;;5052821;27;20031;-66
2022/12/08 12:55:19;;;;;;;5.43;2.10;;;7.40;77.40;;;;;;5114273;27;20421;-65
2022/12/08 12:57:55;;;;;;;5.88;1.83;;;7.40;77.30;;;;;;5116293;27;20080;-64
2022/12/08 13:00:26;;;;;;;4.23;1.50;;;7.40;77.20;;;;;;5079567;28;20024;-65
2022/12/08 13:02:55;;;;;;;5.18;1.60;;;7.40;77.20;;;;;;5099653;28;20019;-65
2022/12/08 13:05:30;;;;;;;3.23;1.10;;;7.40;77.20;;;;;;5119553;27;20432;-63
2022/12/08 13:08:00;;;;;;;4.03;1.07;;;7.40;77.10;;;;;;5117522;27;20470;-64
2022/12/08 13:10:31;;;;;;;3.10;1.00;;;7.40;77.10;;;;;;5115536;28;20054;-63
2022/12/08 13:13:08;;;;;;;3.30;1.13;;;7.40;77.00;;;;;;5084071;28;20032;-63
2022/12/08 13:15:48;;;;;;;2.67;1.20;;;7.40;77.00;;;;;;5117936;27;20027;-64
2022/12/08 13:18:36;;;;;;;4.15;1.15;;;7.40;76.90;;;;;;5118508;27;20108;-63